Bayview, Georgia
Current Conditions -  °F | °C
As of 2:58 PM on Thursday 23 Oct 2014 (Local Time) from KLHW Reporting Station
Clear Clear  
Wind Chill: 71°   Ceiling: Unl
Heat Index: 71°   Visibility: 10mi
Dew Point: 45°   Wind: 0mph
Humidity: 40%   Direction: NA
Pressure: 30"   Gusts: NA
Location:  31.755°N, 81.7451°W
Report Text: KLHW 231858Z AUTO 00000KT 10SM CLR 21/07 A3000 RMK AO2 SLP162 T02140072
Loading
Personal Weather Stations






























Interactive Weather Map
Tropical Storm Tracking
New forecast layout! Learn more

10-Day Weather Forecast

Advertisements
Track Severe Weather on mobile